Time;durP1;ratioP1;P1;durP2;ratioP2;P2;SDS_P1;SDS_P2;PMS_P1;PMS_P2;Temp;Humidity;BMP_temperature;BMP_pressure;BME280_temperature;BME280_humidity;BME280_pressure;Samples;Min_cycle;Max_cycle;Signal;HPM_P1;HPM_P2
2023/12/20 00:00:51;;;;;;;;;;;;;;;5.51;100.00;101596.47;5017651;28;19921;-64
2023/12/20 00:03:17;;;;;;;;;;;;;;;5.46;100.00;101603.00;5016862;28;19921;-64
2023/12/20 00:05:42;;;;;;;;;;;;;;;5.40;100.00;101599.06;5020319;28;19921;-64
2023/12/20 00:08:07;;;;;;;;;;;;;;;5.35;100.00;101597.75;5023930;28;19925;-64
2023/12/20 00:10:32;;;;;;;;;;;;;;;5.33;100.00;101591.75;5016891;28;19928;-64
2023/12/20 00:12:57;;;;;;;;;;;;;;;5.34;100.00;101596.06;5012663;28;19928;-64
2023/12/20 00:15:23;;;;;;;;;;;;;;;5.26;100.00;101597.50;5018536;28;20041;-64
2023/12/20 00:17:48;;;;;;;;;;;;;;;5.25;100.00;101597.63;5019696;28;19964;-64
2023/12/20 00:20:13;;;;;;;;;;;;;;;5.24;100.00;101594.16;5017754;28;19928;-64
2023/12/20 00:22:38;;;;;;;;;;;;;;;5.25;100.00;101598.47;5016831;28;19928;-64
2023/12/20 00:25:04;;;;;;;;;;;;;;;5.24;100.00;101593.31;5020011;28;19932;-64
2023/12/20 00:27:29;;;;;;;;;;;;;;;5.23;100.00;101591.63;5017457;28;19922;-64
2023/12/20 00:29:54;;;;;;;;;;;;;;;5.19;100.00;101591.00;5020340;28;19921;-64
2023/12/20 00:32:20;;;;;;;;;;;;;;;5.17;100.00;101598.19;5018267;28;19952;-64
2023/12/20 00:34:45;;;;;;;;;;;;;;;5.14;100.00;101594.94;5012178;28;19925;-64
2023/12/20 00:37:10;;;;;;;;;;;;;;;5.11;100.00;101588.13;5020947;28;20353;-64
2023/12/20 00:39:35;;;;;;;;;;;;;;;5.07;100.00;101584.06;5014398;28;19921;-64
2023/12/20 00:42:00;;;;;;;;;;;;;;;5.05;100.00;101588.59;5019392;28;19924;-64
2023/12/20 00:44:26;;;;;;;;;;;;;;;4.94;100.00;101578.91;5014946;28;20352;-64
2023/12/20 00:46:51;;;;;;;;;;;;;;;4.93;100.00;101576.38;5017246;28;19948;-64
2023/12/20 00:49:16;;;;;;;;;;;;;;;4.91;100.00;101573.00;5013129;28;19963;-64
2023/12/20 00:51:41;;;;;;;;;;;;;;;4.86;100.00;101572.50;5019652;28;19924;-64
2023/12/20 00:54:07;;;;;;;;;;;;;;;4.82;100.00;101571.06;5017963;28;19944;-64
2023/12/20 00:56:32;;;;;;;;;;;;;;;4.81;100.00;101575.50;5016192;28;20013;-64
2023/12/20 00:58:57;;;;;;;;;;;;;;;4.83;100.00;101581.47;5022303;28;20008;-64
2023/12/20 01:01:22;;;;;;;;;;;;;;;4.85;100.00;101579.56;5016079;28;19928;-64
2023/12/20 01:03:48;;;;;;;;;;;;;;;4.95;100.00;101567.41;5015189;28;19921;-64
2023/12/20 01:06:13;;;;;;;;;;;;;;;4.92;100.00;101569.44;5015163;28;20422;-65
2023/12/20 01:08:38;;;;;;;;;;;;;;;4.96;100.00;101581.41;5017318;28;20011;-64
2023/12/20 01:11:05;;;;;;;;;;;;;;;4.95;100.00;101572.69;5016574;28;19921;-64
2023/12/20 01:13:30;;;;;;;;;;;;;;;4.95;100.00;101583.22;5014502;28;20012;-64
2023/12/20 01:15:55;;;;;;;;;;;;;;;4.97;100.00;101583.09;5015171;28;19960;-64
2023/12/20 01:18:20;;;;;;;;;;;;;;;4.95;100.00;101583.22;5016805;28;19929;-64
2023/12/20 01:20:45;;;;;;;;;;;;;;;4.96;100.00;101586.69;5018616;28;19921;-64
2023/12/20 01:23:11;;;;;;;;;;;;;;;4.95;100.00;101582.38;5019779;28;19921;-64
2023/12/20 01:25:36;;;;;;;;;;;;;;;4.95;100.00;101585.00;5018593;28;20004;-64
2023/12/20 01:28:03;;;;;;;;;;;;;;;4.95;100.00;101585.00;5019906;28;19964;-64
2023/12/20 01:30:28;;;;;;;;;;;;;;;4.97;100.00;101583.09;5015655;28;19956;-64
2023/12/20 01:32:54;;;;;;;;;;;;;;;4.98;100.00;101582.13;5022329;28;19972;-64
2023/12/20 01:35:19;;;;;;;;;;;;;;;4.97;100.00;101580.47;5018064;28;20606;-64
2023/12/20 01:37:44;;;;;;;;;;;;;;;4.97;100.00;101590.97;5023555;28;19999;-64
2023/12/20 01:40:10;;;;;;;;;;;;;;;4.98;100.00;101590.03;5021169;28;19978;-64
2023/12/20 01:42:35;;;;;;;;;;;;;;;4.98;100.00;101588.22;5021321;28;19921;-64
2023/12/20 01:45:00;;;;;;;;;;;;;;;4.93;100.00;101584.28;5016789;28;20689;-64
2023/12/20 01:47:27;;;;;;;;;;;;;;;4.85;100.00;101586.63;5019067;28;20453;-64
2023/12/20 01:49:52;;;;;;;;;;;;;;;4.83;100.00;101581.47;5022540;28;19925;-64
2023/12/20 01:52:17;;;;;;;;;;;;;;;4.80;100.00;101589.59;5022732;28;20031;-64
2023/12/20 01:54:43;;;;;;;;;;;;;;;4.73;100.00;101592.81;5016268;28;19946;-64
2023/12/20 01:57:08;;;;;;;;;;;;;;;4.68;100.00;101593.16;5018229;28;20309;-64
2023/12/20 01:59:34;;;;;;;;;;;;;;;4.67;100.00;101599.38;5021473;28;20008;-64
2023/12/20 02:02:00;;;;;;;;;;;;;;;4.66;100.00;101587.19;5014542;28;19968;-64
2023/12/20 02:04:25;;;;;;;;;;;;;;;4.64;100.00;101584.66;5023030;28;19928;-64
2023/12/20 02:06:52;;;;;;;;;;;;;;;4.66;100.00;101581.91;5015691;28;19924;-64
2023/12/20 02:09:18;;;;;;;;;;;;;;;4.69;100.00;101594.00;5015245;28;19924;-64
2023/12/20 02:11:43;;;;;;;;;;;;;;;4.70;100.00;101599.16;5013874;28;19943;-64
2023/12/20 02:14:08;;;;;;;;;;;;;;;4.72;100.00;101593.78;5017021;28;19952;-64
2023/12/20 02:16:34;;;;;;;;;;;;;;;4.71;100.00;101595.56;5012229;28;19921;-64
2023/12/20 02:18:59;;;;;;;;;;;;;;;4.71;100.00;101586.84;5015545;28;20029;-64
2023/12/20 02:21:25;;;;;;;;;;;;;;;4.73;100.00;101595.44;5014682;28;20031;-64
2023/12/20 02:23:50;;;;;;;;;;;;;;;4.74;100.00;101583.97;5013561;28;19984;-64
2023/12/20 02:26:16;;;;;;;;;;;;;;;4.72;100.00;101580.63;5009330;28;19922;-64
2023/12/20 02:28:41;;;;;;;;;;;;;;;4.73;100.00;101587.56;5012971;28;19928;-65
2023/12/20 02:31:06;;;;;;;;;;;;;;;4.80;100.00;101586.13;5016591;28;19928;-64
2023/12/20 02:33:31;;;;;;;;;;;;;;;4.80;100.00;101594.88;5018221;28;19921;-64
2023/12/20 02:35:57;;;;;;;;;;;;;;;4.79;100.00;101598.47;5018638;28;20743;-64
2023/12/20 02:38:22;;;;;;;;;;;;;;;4.79;100.00;101595.00;5017427;28;20452;-64
2023/12/20 02:40:47;;;;;;;;;;;;;;;4.78;100.00;101582.78;5017445;28;20169;-64
2023/12/20 02:43:12;;;;;;;;;;;;;;;4.80;100.00;101584.34;5011850;28;20386;-63
2023/12/20 02:45:37;;;;;;;;;;;;;;;4.79;100.00;101581.84;5011383;28;19921;-64
2023/12/20 02:48:03;;;;;;;;;;;;;;;4.80;100.00;101573.81;5012959;28;19917;-64
2023/12/20 02:50:28;;;;;;;;;;;;;;;4.82;100.00;101568.44;5012770;28;19921;-64
2023/12/20 02:52:53;;;;;;;;;;;;;;;4.83;100.00;101573.59;5016866;28;19957;-64
2023/12/20 02:55:18;;;;;;;;;;;;;;;4.82;100.00;101569.28;5013303;28;19917;-64
2023/12/20 02:57:44;;;;;;;;;;;;;;;4.85;100.00;101584.00;5014894;28;19932;-64
2023/12/20 03:00:10;;;;;;;;;;;;;;;4.84;100.00;101582.31;5020318;28;19923;-64
2023/12/20 03:02:35;;;;;;;;;;;;;;;4.86;100.00;101583.88;5018599;28;19918;-64
2023/12/20 03:05:01;;;;;;;;;;;;;;;4.85;100.00;101574.31;5021704;28;19920;-64
2023/12/20 03:07:26;;;;;;;;;;;;;;;4.91;100.00;101581.72;5021863;28;19921;-64
2023/12/20 03:09:52;;;;;;;;;;;;;;;4.87;100.00;101568.94;5022968;28;19964;-64
2023/12/20 03:12:17;;;;;;;;;;;;;;;4.94;100.00;101572.81;5014033;28;19917;-64
2023/12/20 03:14:43;;;;;;;;;;;;;;;4.97;100.00;101564.66;5010985;28;20044;-64
2023/12/20 03:17:08;;;;;;;;;;;;;;;5.00;100.00;101560.97;5023982;28;19925;-64
2023/12/20 03:19:33;;;;;;;;;;;;;;;5.04;100.00;101560.59;5015230;28;19982;-64
2023/12/20 03:22:00;;;;;;;;;;;;;;;5.05;100.00;101554.38;5012755;28;19928;-64
2023/12/20 03:24:26;;;;;;;;;;;;;;;5.03;100.00;101540.50;5013794;28;19924;-64
2023/12/20 03:26:51;;;;;;;;;;;;;;;5.02;100.00;101541.47;5017516;28;20649;-64
2023/12/20 03:29:16;;;;;;;;;;;;;;;5.03;100.00;101537.03;5017930;28;19921;-64
2023/12/20 03:31:41;;;;;;;;;;;;;;;4.97;100.00;101533.91;5019153;28;19922;-64
2023/12/20 03:34:06;;;;;;;;;;;;;;;4.97;100.00;101548.88;5018464;28;19927;-64
2023/12/20 03:36:32;;;;;;;;;;;;;;;4.94;100.00;101547.31;5017432;28;19921;-64
2023/12/20 03:38:57;;;;;;;;;;;;;;;4.96;100.00;101547.19;5013040;28;19932;-64
2023/12/20 03:41:22;;;;;;;;;;;;;;;4.98;100.00;101540.84;5010773;28;20561;-64
2023/12/20 03:43:47;;;;;;;;;;;;;;;5.02;100.00;101538.00;5018431;28;19921;-64
2023/12/20 03:46:12;;;;;;;;;;;;;;;5.03;100.00;101523.88;5017210;28;20019;-64
2023/12/20 03:48:38;;;;;;;;;;;;;;;5.06;100.00;101536.78;5010788;28;19927;-64
2023/12/20 03:51:03;;;;;;;;;;;;;;;5.09;100.00;101541.81;5017112;28;19974;-64
2023/12/20 03:53:28;;;;;;;;;;;;;;;5.13;100.00;101544.09;5013534;28;19921;-64
2023/12/20 03:55:53;;;;;;;;;;;;;;;5.12;100.00;101550.31;5019985;28;19925;-63
2023/12/20 03:58:19;;;;;;;;;;;;;;;5.14;100.00;101552.84;5017683;28;19925;-64
2023/12/20 04:00:44;;;;;;;;;;;;;;;5.14;100.00;101558.09;5014969;28;19932;-64
2023/12/20 04:03:12;;;;;;;;;;;;;;;5.17;100.00;101550.78;5018735;28;19921;-64
2023/12/20 04:05:37;;;;;;;;;;;;;;;5.21;100.00;101541.72;5019278;28;20341;-64
2023/12/20 04:08:04;;;;;;;;;;;;;;;5.23;100.00;101549.50;5018614;28;19928;-65
2023/12/20 04:10:29;;;;;;;;;;;;;;;5.25;100.00;101553.69;5017849;28;19921;-63
2023/12/20 04:12:55;;;;;;;;;;;;;;;5.25;100.00;101558.97;5019148;28;20809;-64
2023/12/20 04:15:20;;;;;;;;;;;;;;;5.28;100.00;101555.25;5018885;28;20400;-64
2023/12/20 04:17:45;;;;;;;;;;;;;;;5.33;100.00;101549.63;5017361;28;19925;-63
2023/12/20 04:20:10;;;;;;;;;;;;;;;5.38;100.00;101550.94;5021843;28;19971;-63
2023/12/20 04:22:35;;;;;;;;;;;;;;;5.41;100.00;101553.34;5013875;28;19924;-64
2023/12/20 04:25:01;;;;;;;;;;;;;;;5.45;100.00;101549.50;5019434;28;19925;-64
2023/12/20 04:27:26;;;;;;;;;;;;;;;5.49;100.00;101550.09;5018700;28;19960;-64
2023/12/20 04:29:51;;;;;;;;;;;;;;;5.53;100.00;101548.91;5016850;28;19921;-64
2023/12/20 04:32:17;;;;;;;;;;;;;;;5.55;100.00;101547.00;5013519;28;19921;-64
2023/12/20 04:34:42;;;;;;;;;;;;;;;5.61;100.00;101546.50;5017086;28;19940;-64
2023/12/20 04:37:07;;;;;;;;;;;;;;;5.59;100.00;101540.53;5018708;28;20413;-64
2023/12/20 04:39:33;;;;;;;;;;;;;;;5.64;100.00;101541.00;5015939;28;19925;-64
2023/12/20 04:41:58;;;;;;;;;;;;;;;5.62;100.00;101539.44;5016673;28;20387;-64
2023/12/20 04:44:23;;;;;;;;;;;;;;;5.62;100.00;101539.44;5013706;28;19987;-64
2023/12/20 04:46:48;;;;;;;;;;;;;;;5.62;100.00;101547.34;5013437;28;19951;-64
2023/12/20 04:49:14;;;;;;;;;;;;;;;5.70;100.00;101547.56;5017865;28;19924;-63
2023/12/20 04:51:39;;;;;;;;;;;;;;;5.67;100.00;101553.09;5014039;28;19924;-64
2023/12/20 04:54:04;;;;;;;;;;;;;;;5.73;100.00;101560.50;5016669;28;20429;-63
2023/12/20 04:56:29;;;;;;;;;;;;;;;5.75;100.00;101559.41;5017267;28;20285;-64
2023/12/20 04:58:54;;;;;;;;;;;;;;;5.78;100.00;101553.94;5020737;28;19921;-63
2023/12/20 05:01:21;;;;;;;;;;;;;;;5.80;100.00;101552.00;5019626;28;20648;-64
2023/12/20 05:03:46;;;;;;;;;;;;;;;5.83;100.00;101549.13;5020653;28;20484;-64
2023/12/20 05:06:11;;;;;;;;;;;;;;;5.90;100.00;101541.59;5025332;28;19925;-64
2023/12/20 05:08:37;;;;;;;;;;;;;;;5.94;100.00;101539.53;5021596;28;20437;-64
2023/12/20 05:11:02;;;;;;;;;;;;;;;5.97;100.00;101541.94;5023492;28;20378;-64
2023/12/20 05:13:28;;;;;;;;;;;;;;;6.00;100.00;101537.25;5024071;28;19936;-64
2023/12/20 05:15:53;;;;;;;;;;;;;;;6.01;100.00;101533.63;5020344;28;19920;-64
2023/12/20 05:18:18;;;;;;;;;;;;;;;6.01;100.00;101540.72;5014205;28;20418;-64
2023/12/20 05:20:43;;;;;;;;;;;;;;;6.02;100.00;101527.41;5021762;28;19928;-64
2023/12/20 05:23:08;;;;;;;;;;;;;;;6.05;100.00;101537.69;5022819;28;19952;-64
2023/12/20 05:25:34;;;;;;;;;;;;;;;6.08;100.00;101536.63;5017087;28;19924;-64
2023/12/20 05:27:59;;;;;;;;;;;;;;;6.06;100.00;101538.53;5024113;28;20028;-64
2023/12/20 05:30:24;;;;;;;;;;;;;;;6.07;100.00;101529.66;5022314;28;19935;-63
2023/12/20 05:32:49;;;;;;;;;;;;;;;6.07;100.00;101527.91;5020757;28;20356;-64
2023/12/20 05:35:15;;;;;;;;;;;;;;;6.11;100.00;101518.78;5023685;28;20059;-64
2023/12/20 05:37:40;;;;;;;;;;;;;;;6.03;100.00;101522.97;5022801;28;19965;-63
2023/12/20 05:40:06;;;;;;;;;;;;;;;6.03;100.00;101520.34;5023907;28;19921;-64
2023/12/20 05:42:31;;;;;;;;;;;;;;;6.02;100.00;101530.03;5021173;28;20618;-64
2023/12/20 05:44:56;;;;;;;;;;;;;;;5.96;100.00;101527.06;5021554;28;19925;-63
2023/12/20 05:47:21;;;;;;;;;;;;;;;5.96;100.00;101516.53;5020970;28;20072;-64
2023/12/20 05:49:47;;;;;;;;;;;;;;;5.98;100.00;101535.69;5016765;28;19971;-63
2023/12/20 05:52:12;;;;;;;;;;;;;;;5.92;100.00;101534.38;5021390;28;20063;-63
2023/12/20 05:54:37;;;;;;;;;;;;;;;5.85;100.00;101534.03;5021110;28;19922;-64
2023/12/20 05:57:02;;;;;;;;;;;;;;;5.87;100.00;101540.00;5015457;28;20612;-64
2023/12/20 05:59:28;;;;;;;;;;;;;;;5.82;100.00;101544.81;5017637;28;19925;-64
2023/12/20 06:01:53;;;;;;;;;;;;;;;5.82;100.00;101550.09;5018000;28;19921;-63
2023/12/20 06:04:18;;;;;;;;;;;;;;;5.80;100.00;101559.91;5019090;28;19925;-63
2023/12/20 06:06:44;;;;;;;;;;;;;;;5.80;100.00;101556.44;5022832;28;19944;-64
2023/12/20 06:09:09;;;;;;;;;;;;;;;5.78;100.00;101558.34;5016005;28;19939;-64
2023/12/20 06:11:34;;;;;;;;;;;;;;;5.77;100.00;101560.13;5014857;28;19967;-64
2023/12/20 06:14:00;;;;;;;;;;;;;;;5.76;100.00;101561.09;5009058;28;19913;-64
2023/12/20 06:16:25;;;;;;;;;;;;;;;5.72;100.00;101551.75;5015522;28;19925;-64
2023/12/20 06:18:50;;;;;;;;;;;;;;;5.69;100.00;101552.00;5013613;28;20453;-64
2023/12/20 06:21:15;;;;;;;;;;;;;;;5.69;100.00;101553.81;5025207;28;19917;-64
2023/12/20 06:23:41;;;;;;;;;;;;;;;5.58;100.00;101550.22;5016417;28;19944;-64
2023/12/20 06:26:06;;;;;;;;;;;;;;;5.52;100.00;101549.88;5017642;28;19921;-63
2023/12/20 06:28:31;;;;;;;;;;;;;;;5.50;100.00;101560.53;5020144;28;19943;-64
2023/12/20 06:30:57;;;;;;;;;;;;;;;5.40;100.00;101551.66;5018463;28;19989;-63
2023/12/20 06:33:22;;;;;;;;;;;;;;;5.34;100.00;101554.78;5018703;28;19985;-64
2023/12/20 06:35:48;;;;;;;;;;;;;;;5.25;100.00;101556.34;5018325;28;19917;-64
2023/12/20 06:38:13;;;;;;;;;;;;;;;5.23;100.00;101550.34;5018915;28;19973;-64
2023/12/20 06:40:38;;;;;;;;;;;;;;;5.21;100.00;101556.69;5015045;28;20338;-64
2023/12/20 06:43:03;;;;;;;;;;;;;;;5.20;100.00;101554.97;5022095;28;20004;-63
2023/12/20 06:45:29;;;;;;;;;;;;;;;5.18;100.00;101549.84;5019694;28;19913;-64
2023/12/20 06:47:54;;;;;;;;;;;;;;;5.18;100.00;101555.09;5010286;28;19925;-64
2023/12/20 06:50:20;;;;;;;;;;;;;;;5.20;100.00;101560.25;5017331;28;19983;-64
2023/12/20 06:52:45;;;;;;;;;;;;;;;5.20;100.00;101560.25;5017686;28;19928;-64
2023/12/20 06:55:10;;;;;;;;;;;;;;;5.20;100.00;101554.97;5018389;28;20811;-63
2023/12/20 06:57:36;;;;;;;;;;;;;;;5.19;100.00;101554.16;5018320;28;19925;-64
2023/12/20 07:00:02;;;;;;;;;;;;;;;5.18;100.00;101554.25;5016510;28;19948;-64
2023/12/20 07:02:30;;;;;;;;;;;;;;;5.21;100.00;101552.25;5016936;28;19980;-63
2023/12/20 07:04:55;;;;;;;;;;;;;;;5.22;100.00;101543.41;5019233;28;19921;-64
2023/12/20 07:07:20;;;;;;;;;;;;;;;5.25;100.00;101552.84;5017427;28;19921;-64
2023/12/20 07:09:46;;;;;;;;;;;;;;;5.25;100.00;101540.53;5013559;28;19917;-64
2023/12/20 07:12:11;;;;;;;;;;;;;;;5.26;100.00;101536.94;5012706;28;20764;-63
2023/12/20 07:14:36;;;;;;;;;;;;;;;5.31;100.00;101544.47;5009685;28;19924;-64
2023/12/20 07:17:02;;;;;;;;;;;;;;;5.26;100.00;101523.78;5012898;28;19936;-64
2023/12/20 07:19:28;;;;;;;;;;;;;;;5.25;100.00;101530.00;5018216;28;19963;-64
2023/12/20 07:21:53;;;;;;;;;;;;;;;5.32;100.00;101535.63;5011839;28;20020;-64
2023/12/20 07:24:18;;;;;;;;;;;;;;;5.36;100.00;101538.84;5012910;28;19956;-64
2023/12/20 07:26:43;;;;;;;;;;;;;;;5.31;100.00;101544.47;5015884;28;20020;-64
2023/12/20 07:29:08;;;;;;;;;;;;;;;5.32;100.00;101547.94;5019465;28;19956;-64
2023/12/20 07:31:34;;;;;;;;;;;;;;;5.27;100.00;101543.88;5012451;28;20341;-64
2023/12/20 07:33:59;;;;;;;;;;;;;;;5.26;100.00;101536.09;5017235;28;20580;-64
2023/12/20 07:36:25;;;;;;;;;;;;;;;5.28;100.00;101542.09;5011947;28;20491;-64
2023/12/20 07:38:50;;;;;;;;;;;;;;;5.26;100.00;101526.41;5018775;28;20460;-64
2023/12/20 07:41:21;;;;;;;;;;;;;;;5.29;100.00;101531.44;5019046;28;19921;-64
2023/12/20 07:43:46;;;;;;;;;;;;;;;5.31;100.00;101546.28;5016543;28;19922;-64
2023/12/20 07:46:11;;;;;;;;;;;;;;;5.32;100.00;101535.63;5017551;28;20382;-64
2023/12/20 07:48:37;;;;;;;;;;;;;;;5.28;100.00;101539.44;5007750;28;19917;-64
2023/12/20 07:51:02;;;;;;;;;;;;;;;5.27;100.00;101532.50;5018414;28;19920;-64
2023/12/20 07:53:28;;;;;;;;;;;;;;;5.29;100.00;101536.69;5018656;28;19924;-64
2023/12/20 07:55:53;;;;;;;;;;;;;;;5.31;100.00;101541.00;5016202;28;19921;-64
2023/12/20 07:58:18;;;;;;;;;;;;;;;5.33;100.00;101533.81;5019744;28;19925;-63
2023/12/20 08:00:43;;;;;;;;;;;;;;;5.35;100.00;101535.38;5011397;28;20408;-64
2023/12/20 08:03:09;;;;;;;;;;;;;;;5.37;100.00;101541.38;5019350;28;19955;-64
2023/12/20 08:05:34;;;;;;;;;;;;;;;5.40;100.00;101556.91;5014646;28;19921;-64
2023/12/20 08:07:59;;;;;;;;;;;;;;;5.42;100.00;101551.53;5018984;28;19921;-64
2023/12/20 08:10:25;;;;;;;;;;;;;;;5.43;100.00;101540.03;5008925;28;20127;-64
2023/12/20 08:12:50;;;;;;;;;;;;;;;5.47;100.00;101541.47;5009397;28;20398;-63
2023/12/20 08:15:15;;;;;;;;;;;;;;;5.50;100.00;101543.91;5012977;28;20640;-64
2023/12/20 08:17:41;;;;;;;;;;;;;;;5.50;100.00;101538.63;5013896;28;20391;-63
2023/12/20 08:20:06;;;;;;;;;;;;;;;5.52;100.00;101544.59;5016772;28;20015;-63
2023/12/20 08:22:31;;;;;;;;;;;;;;;5.52;100.00;101550.72;5016283;28;19916;-63
2023/12/20 08:24:57;;;;;;;;;;;;;;;5.56;100.00;101548.66;5010159;28;20003;-63
2023/12/20 08:27:22;;;;;;;;;;;;;;;5.56;100.00;101553.94;5016436;28;19921;-64
2023/12/20 08:29:49;;;;;;;;;;;;;;;5.54;100.00;101547.97;5020206;28;19928;-64
2023/12/20 08:32:14;;;;;;;;;;;;;;;5.58;100.00;101557.28;5018722;28;19925;-64
2023/12/20 08:34:39;;;;;;;;;;;;;;;5.60;100.00;101544.84;5020081;28;19941;-64
2023/12/20 08:37:05;;;;;;;;;;;;;;;5.60;100.00;101543.03;5014904;28;19929;-64
2023/12/20 08:39:30;;;;;;;;;;;;;;;5.62;100.00;101549.97;5018933;28;19918;-64
2023/12/20 08:41:55;;;;;;;;;;;;;;;5.63;100.00;101547.22;5020258;28;19921;-63
2023/12/20 08:44:22;;;;;;;;;;;;;;;5.65;100.00;101547.09;5021610;28;20742;-64
2023/12/20 08:46:48;;;;;;;;;;;;;;;5.72;100.00;101537.75;5023055;28;19925;-63
2023/12/20 08:49:13;;;;;;;;;;;;;;;5.71;100.00;101547.44;5022587;28;19975;-64
2023/12/20 08:51:40;;;;;;;;;;;;;;;5.72;100.00;101533.31;5022231;28;19920;-64
2023/12/20 08:54:07;;;;;;;;;;;;;;;5.75;100.00;101532.22;5020781;28;19921;-63
2023/12/20 08:56:33;;;;;;;;;;;;;;;5.80;100.00;101535.34;5020414;28;20032;-64
2023/12/20 08:58:58;;;;;;;;;;;;;;;5.83;100.00;101540.38;5014406;28;19949;-64
2023/12/20 09:01:24;;;;;;;;;;;;;;;5.89;100.00;101539.88;5021229;28;19936;-64
2023/12/20 09:03:49;;;;;;;;;;;;;;;5.92;100.00;101523.84;5017426;28;19921;-64
2023/12/20 09:06:14;;;;;;;;;;;;;;;5.92;100.00;101526.47;5022375;28;19922;-64
2023/12/20 09:08:39;;;;;;;;;;;;;;;5.90;100.00;101531.88;5019399;28;20388;-64
2023/12/20 09:11:04;;;;;;;;;;;;;;;5.92;100.00;101523.84;5009761;28;19921;-63
2023/12/20 09:13:31;;;;;;;;;;;;;;;5.96;100.00;101527.91;5014459;28;19918;-63
2023/12/20 09:15:57;;;;;;;;;;;;;;;5.98;100.00;101519.88;5020272;28;20483;-64
2023/12/20 09:18:22;;;;;;;;;;;;;;;6.05;100.00;101531.59;5008581;28;20449;-64
2023/12/20 09:20:47;;;;;;;;;;;;;;;6.06;100.00;101517.44;5015592;28;19913;-64
2023/12/20 09:23:13;;;;;;;;;;;;;;;6.12;100.00;101538.06;5024573;28;19924;-63
2023/12/20 09:25:38;;;;;;;;;;;;;;;6.15;100.00;101530.75;5017744;28;20654;-63
2023/12/20 09:28:03;;;;;;;;;;;;;;;6.22;100.00;101539.81;5022464;28;20021;-64
2023/12/20 09:30:29;;;;;;;;;;;;;;;6.34;100.00;101535.31;5017734;28;19921;-64
2023/12/20 09:32:54;;;;;;;;;;;;;;;6.34;100.00;101537.13;5020731;28;19928;-63
2023/12/20 09:35:19;;;;;;;;;;;;;;;6.38;100.00;101531.50;5019884;28;19963;-64
2023/12/20 09:37:46;;;;;;;;;;;;;;;6.49;100.00;101520.88;5010333;28;19955;-64
2023/12/20 09:40:13;;;;;;;;;;;;;;;6.52;100.00;101536.47;5009188;28;20393;-64
2023/12/20 09:42:56;;;;;;;;;;;;;;;6.56;100.00;101531.75;5010944;28;19921;-64
2023/12/20 09:45:22;;;;;;;;;;;;;;;6.56;100.00;101534.41;5018443;28;19983;-64
2023/12/20 09:47:47;;;;;;;;;;;;;;;6.67;100.00;101528.25;5011945;28;20391;-64
2023/12/20 09:50:13;;;;;;;;;;;;;;;6.62;100.00;101527.75;5019536;28;19921;-64
2023/12/20 09:52:39;;;;;;;;;;;;;;;6.71;100.00;101529.66;5011870;28;19917;-64
2023/12/20 09:55:05;;;;;;;;;;;;;;;6.69;100.00;101528.94;5017019;28;19922;-64
2023/12/20 09:57:31;;;;;;;;;;;;;;;6.69;100.00;101539.50;5018462;28;20020;-64
2023/12/20 09:59:56;;;;;;;;;;;;;;;6.73;100.00;101540.91;5019401;28;20400;-64
2023/12/20 10:02:24;;;;;;;;;;;;;;;6.73;100.00;101539.13;5019256;28;19921;-64
2023/12/20 10:04:49;;;;;;;;;;;;;;;6.76;100.00;101546.78;5018992;28;19921;-64
2023/12/20 10:07:15;;;;;;;;;;;;;;;6.81;100.00;101543.75;5018979;28;20625;-64
2023/12/20 10:09:41;;;;;;;;;;;;;;;6.90;100.00;101547.41;5011074;28;20465;-64
2023/12/20 10:12:07;;;;;;;;;;;;;;;6.98;100.00;101537.88;5015662;28;20294;-64
2023/12/20 10:14:32;;;;;;;;;;;;;;;6.93;100.00;101529.50;5010036;28;19945;-63
2023/12/20 10:17:04;;;;;;;;;;;;;;;6.99;100.00;101528.16;5011812;28;19929;-64
2023/12/20 10:19:29;;;;;;;;;;;;;;;6.97;100.00;101535.38;5009196;28;19983;-64
2023/12/20 10:21:54;;;;;;;;;;;;;;;7.05;100.00;101532.91;5014159;28;19921;-64
2023/12/20 10:24:19;;;;;;;;;;;;;;;7.11;100.00;101533.22;5009136;28;20372;-64
2023/12/20 10:26:45;;;;;;;;;;;;;;;7.04;100.00;101525.97;4955227;28;1764891;-64
2023/12/20 10:29:10;;;;;;;;;;;;;;;7.01;100.00;101526.22;5015289;28;19918;-64
2023/12/20 10:31:36;;;;;;;;;;;;;;;7.06;100.00;101524.88;5015379;28;19924;-64
2023/12/20 10:34:02;;;;;;;;;;;;;;;7.06;100.00;101522.22;5012616;28;19918;-64
2023/12/20 10:36:31;;;;;;;;;;;;;;;7.01;100.00;101526.22;5015571;28;19921;-64
2023/12/20 10:38:57;;;;;;;;;;;;;;;7.05;100.00;101517.06;5014175;28;22840;-64
2023/12/20 10:41:28;;;;;;;;;;;;;;;7.02;100.00;101507.63;5016926;28;19921;-63
2023/12/20 10:43:56;;;;;;;;;;;;;;;7.03;100.00;101524.28;5018138;28;19917;-64
2023/12/20 10:46:21;;;;;;;;;;;;;;;7.07;100.00;101509.84;5019408;28;19921;-64
2023/12/20 10:48:47;;;;;;;;;;;;;;;7.06;100.00;101514.31;5015338;28;19929;-64
2023/12/20 10:51:14;;;;;;;;;;;;;;;7.11;100.00;101512.09;5016436;28;19928;-65
2023/12/20 10:53:40;;;;;;;;;;;;;;;7.08;100.00;101509.72;5016631;28;19987;-65
2023/12/20 10:56:07;;;;;;;;;;;;;;;7.17;100.00;101507.25;5018456;28;19964;-64
2023/12/20 10:58:33;;;;;;;;;;;;;;;7.23;100.00;101515.50;5020427;28;20405;-65
2023/12/20 11:01:02;;;;;;;;;;;;;;;7.24;100.00;101479.34;5013010;28;19925;-64
2023/12/20 11:03:29;;;;;;;;;;;;;;;7.22;100.00;101482.09;5016410;28;19944;-65
2023/12/20 11:06:08;;;;;;;;;;;;;;;7.24;100.00;101482.00;5011611;28;19921;-65
2023/12/20 11:08:36;;;;;;;;;;;;;;;7.32;100.00;101482.16;5017393;28;19955;-65
2023/12/20 11:11:01;;;;;;;;;;;;;;;7.31;100.00;101480.50;5015580;28;19928;-64
2023/12/20 11:13:53;;;;;;;;;;;;;;;7.31;100.00;101478.69;5017460;28;19925;-64
2023/12/20 11:16:18;;;;;;;;;;;;;;;7.32;100.00;101498.00;5016125;28;20032;-64
2023/12/20 11:18:44;;;;;;;;;;;;;;;7.28;100.00;101484.25;5012589;28;20028;-65
2023/12/20 11:21:10;;;;;;;;;;;;;;;7.31;100.00;101486.59;5024966;28;20356;-65
2023/12/20 11:23:36;;;;;;;;;;;;;;;7.32;100.00;101492.72;5008839;28;20466;-65
2023/12/20 11:26:02;;;;;;;;;;;;;;;7.35;100.00;101484.53;5013003;28;20032;-65
2023/12/20 11:28:27;;;;;;;;;;;;;;;7.28;100.00;101475.47;5010782;28;19924;-65
2023/12/20 11:30:56;;;;;;;;;;;;;;;7.28;100.00;101480.75;5006905;28;19921;-64
2023/12/20 11:33:25;;;;;;;;;;;;;;;7.27;100.00;101484.38;5026106;28;19917;-64
2023/12/20 11:35:51;;;;;;;;;;;;;;;7.25;100.00;101481.03;5011767;28;19921;-65
2023/12/20 11:38:17;;;;;;;;;;;;;;;7.32;100.00;101482.16;5012904;28;19928;-64
2023/12/20 11:40:43;;;;;;;;;;;;;;;7.27;100.00;101473.81;5006091;28;19928;-64
2023/12/20 11:43:08;;;;;;;;;;;;;;;7.27;100.00;101468.53;5014642;28;20004;-65
2023/12/20 11:45:36;;;;;;;;;;;;;;;7.23;100.00;101464.44;5007808;28;20035;-65
2023/12/20 11:48:02;;;;;;;;;;;;;;;7.24;100.00;101469.63;5009668;28;19921;-65
2023/12/20 11:50:29;;;;;;;;;;;;;;;7.20;100.00;101464.72;5008938;28;19928;-64
2023/12/20 11:52:55;;;;;;;;;;;;;;;7.15;100.00;101457.19;5010547;28;19925;-64
2023/12/20 11:55:20;;;;;;;;;;;;;;;7.10;100.00;101456.78;5015656;28;19925;-64
2023/12/20 11:57:46;;;;;;;;;;;;;;;7.14;100.00;101461.66;5014722;28;19999;-64
2023/12/20 12:00:13;;;;;;;;;;;;;;;7.14;100.00;101452.88;5016434;28;20011;-65
2023/12/20 12:02:38;;;;;;;;;;;;;;;7.10;100.00;101447.03;5012317;28;20385;-64
2023/12/20 12:05:06;;;;;;;;;;;;;;;7.07;100.00;101436.75;5016017;28;20394;-65
2023/12/20 12:07:31;;;;;;;;;;;;;;;7.09;100.00;101431.31;5011906;28;19947;-65
2023/12/20 12:09:57;;;;;;;;;;;;;;;7.11;100.00;101437.31;5007910;28;19921;-64
2023/12/20 12:12:23;;;;;;;;;;;;;;;7.13;100.00;101438.84;5011859;28;19921;-65
2023/12/20 12:14:49;;;;;;;;;;;;;;;7.17;100.00;101441.22;5010914;28;19922;-65
2023/12/20 12:17:14;;;;;;;;;;;;;;;7.19;100.00;101428.72;5009444;28;19925;-64
2023/12/20 12:19:40;;;;;;;;;;;;;;;7.29;100.00;101432.25;5011812;28;19932;-64
2023/12/20 12:22:16;;;;;;;;;;;;;;;7.32;100.00;101429.31;5012763;28;19946;-64
2023/12/20 12:24:42;;;;;;;;;;;;;;;7.34;100.00;101437.94;5013097;28;19917;-64
2023/12/20 12:27:08;;;;;;;;;;;;;;;7.32;100.00;101427.50;5010110;28;20329;-65